Terminal Aerodrome Forecast
Issued by NWS

Current Version | Previous Version | Text Only | Print | Product List | Glossary On
Versions: 1 2 3 4 5 6 7 8 9 10 11 12 13 14 15 16
000
FTUS44 KTSA 300047 AAA
TAFMLC
TAF AMD
KMLC 300047Z 3001/3024 14008KT P6SM VCTS SCT016CB BKN100
      TEMPO 3001/3003 VRB15G35KT 2SM TSRA BKN012CB
     FM300400 15007KT P6SM VCTS OVC025CB
     FM300600 19005KT P6SM BKN025
     FM300900 VRB03KT 4SM BR BKN015
      TEMPO 3010/3014 BKN007
     FM301500 29010KT P6SM SCT012 BKN025
     FM301800 32007KT P6SM SCT250=

USA.gov is the U.S. government's official web portal to all federal, state and local government web resources and services.